sensor_id;sensor_type;location;lat;lon;timestamp;pressure;altitude;pressure_sealevel;temperature;humidity
46598;BME280;32318;48.858;8.252;2023-09-19T00:03:10;99894.94;;;18.01;79.83
46598;BME280;32318;48.858;8.252;2023-09-19T00:11:11;99901.38;;;18.00;81.20
46598;BME280;32318;48.858;8.252;2023-09-19T00:19:12;99893.72;;;17.97;80.09
46598;BME280;32318;48.858;8.252;2023-09-19T00:27:13;99899.75;;;17.93;79.98
46598;BME280;32318;48.858;8.252;2023-09-19T00:35:14;99898.09;;;17.92;80.45
46598;BME280;32318;48.858;8.252;2023-09-19T00:43:15;99890.66;;;17.87;80.35
46598;BME280;32318;48.858;8.252;2023-09-19T00:51:16;99907.31;;;17.84;80.39
46598;BME280;32318;48.858;8.252;2023-09-19T00:59:20;99910.84;;;17.84;79.72
46598;BME280;32318;48.858;8.252;2023-09-19T01:07:22;99906.09;;;17.80;79.58
46598;BME280;32318;48.858;8.252;2023-09-19T01:15:55;99911.06;;;17.83;79.30
46598;BME280;32318;48.858;8.252;2023-09-19T01:24:17;99927.66;;;17.86;79.84
46598;BME280;32318;48.858;8.252;2023-09-19T01:32:24;99934.94;;;17.86;79.14
46598;BME280;32318;48.858;8.252;2023-09-19T01:40:25;99943.25;;;17.84;79.11
46598;BME280;32318;48.858;8.252;2023-09-19T01:48:37;99948.44;;;17.86;79.06
46598;BME280;32318;48.858;8.252;2023-09-19T01:56:48;99955.28;;;17.88;79.21
46598;BME280;32318;48.858;8.252;2023-09-19T02:04:50;99962.09;;;17.91;79.25
46598;BME280;32318;48.858;8.252;2023-09-19T02:12:51;99964.56;;;17.93;79.30
46598;BME280;32318;48.858;8.252;2023-09-19T02:20:53;99968.13;;;17.93;79.45
46598;BME280;32318;48.858;8.252;2023-09-19T02:28:53;99979.97;;;17.92;80.13
46598;BME280;32318;48.858;8.252;2023-09-19T02:36:54;99987.88;;;17.87;80.40
46598;BME280;32318;48.858;8.252;2023-09-19T02:44:55;99997.06;;;17.86;80.48
46598;BME280;32318;48.858;8.252;2023-09-19T02:52:56;99999.13;;;17.84;81.25
46598;BME280;32318;48.858;8.252;2023-09-19T03:00:57;100002.09;;;17.76;82.58
46598;BME280;32318;48.858;8.252;2023-09-19T03:08:57;100022.47;;;17.71;82.16
46598;BME280;32318;48.858;8.252;2023-09-19T03:17:04;100023.50;;;17.70;83.57
46598;BME280;32318;48.858;8.252;2023-09-19T03:25:05;100020.88;;;17.64;83.99
46598;BME280;32318;48.858;8.252;2023-09-19T03:33:08;100022.09;;;17.61;84.55
46598;BME280;32318;48.858;8.252;2023-09-19T03:41:08;100016.69;;;17.61;85.86
46598;BME280;32318;48.858;8.252;2023-09-19T03:49:08;100020.91;;;17.57;86.35
46598;BME280;32318;48.858;8.252;2023-09-19T03:57:09;100019.06;;;17.51;86.40
46598;BME280;32318;48.858;8.252;2023-09-19T04:05:09;100028.44;;;17.42;86.78
46598;BME280;32318;48.858;8.252;2023-09-19T04:13:10;100047.53;;;17.40;87.80
46598;BME280;32318;48.858;8.252;2023-09-19T04:21:11;100055.03;;;17.38;87.44
46598;BME280;32318;48.858;8.252;2023-09-19T04:29:11;100067.28;;;17.34;87.94
46598;BME280;32318;48.858;8.252;2023-09-19T04:37:14;100085.38;;;17.27;88.27
46598;BME280;32318;48.858;8.252;2023-09-19T04:45:15;100076.25;;;17.21;87.73
46598;BME280;32318;48.858;8.252;2023-09-19T04:53:16;100088.31;;;17.18;87.92
46598;BME280;32318;48.858;8.252;2023-09-19T05:01:17;100103.25;;;17.14;87.96
46598;BME280;32318;48.858;8.252;2023-09-19T05:09:18;100113.00;;;17.08;86.68
46598;BME280;32318;48.858;8.252;2023-09-19T05:17:20;100125.66;;;17.01;87.29
46598;BME280;32318;48.858;8.252;2023-09-19T05:25:20;100126.09;;;16.98;87.62
46598;BME280;32318;48.858;8.252;2023-09-19T05:33:20;100147.69;;;16.98;87.11
46598;BME280;32318;48.858;8.252;2023-09-19T05:41:20;100152.84;;;17.00;87.37
46598;BME280;32318;48.858;8.252;2023-09-19T05:49:21;100170.06;;;17.05;86.88
46598;BME280;32318;48.858;8.252;2023-09-19T05:57:21;100174.63;;;17.12;86.45
46598;BME280;32318;48.858;8.252;2023-09-19T06:05:23;100178.78;;;17.14;86.42
46598;BME280;32318;48.858;8.252;2023-09-19T06:13:24;100185.41;;;17.18;85.66
46598;BME280;32318;48.858;8.252;2023-09-19T06:21:27;100193.28;;;17.20;85.99
46598;BME280;32318;48.858;8.252;2023-09-19T06:29:27;100192.03;;;17.22;85.83
46598;BME280;32318;48.858;8.252;2023-09-19T06:37:28;100189.16;;;17.24;85.60
46598;BME280;32318;48.858;8.252;2023-09-19T06:45:28;100194.97;;;17.28;84.82
46598;BME280;32318;48.858;8.252;2023-09-19T06:53:29;100194.94;;;17.34;84.96
46598;BME280;32318;48.858;8.252;2023-09-19T07:01:31;100203.25;;;17.46;84.99
46598;BME280;32318;48.858;8.252;2023-09-19T07:09:32;100209.81;;;17.70;85.02
46598;BME280;32318;48.858;8.252;2023-09-19T07:17:32;100211.63;;;17.97;84.26
46598;BME280;32318;48.858;8.252;2023-09-19T07:25:35;100218.81;;;18.16;84.63
46598;BME280;32318;48.858;8.252;2023-09-19T07:33:36;100221.69;;;18.28;83.19
46598;BME280;32318;48.858;8.252;2023-09-19T07:41:36;100229.28;;;18.45;81.37
46598;BME280;32318;48.858;8.252;2023-09-19T07:49:37;100239.47;;;18.49;78.89
46598;BME280;32318;48.858;8.252;2023-09-19T07:57:37;100242.75;;;18.52;77.98
46598;BME280;32318;48.858;8.252;2023-09-19T08:05:38;100256.19;;;18.72;79.08
46598;BME280;32318;48.858;8.252;2023-09-19T08:13:39;100253.41;;;18.78;78.95
46598;BME280;32318;48.858;8.252;2023-09-19T08:21:43;100267.16;;;18.77;78.94
46598;BME280;32318;48.858;8.252;2023-09-19T08:29:47;100270.84;;;18.89;77.67
46598;BME280;32318;48.858;8.252;2023-09-19T08:37:47;100272.47;;;18.90;76.79
46598;BME280;32318;48.858;8.252;2023-09-19T08:45:48;100278.22;;;19.07;77.00
46598;BME280;32318;48.858;8.252;2023-09-19T08:53:52;100272.09;;;19.44;73.86
46598;BME280;32318;48.858;8.252;2023-09-19T09:01:54;100274.03;;;19.62;72.24
46598;BME280;32318;48.858;8.252;2023-09-19T09:09:56;100283.84;;;19.56;71.70
46598;BME280;32318;48.858;8.252;2023-09-19T09:17:56;100284.56;;;19.45;71.08
46598;BME280;32318;48.858;8.252;2023-09-19T09:26:01;100273.59;;;19.40;71.43
46598;BME280;32318;48.858;8.252;2023-09-19T09:34:32;100270.66;;;19.41;66.45
46598;BME280;32318;48.858;8.252;2023-09-19T09:43:01;100258.16;;;19.84;63.97
46598;BME280;32318;48.858;8.252;2023-09-19T10:08:11;100275.09;;;20.84;59.80
46598;BME280;32318;48.858;8.252;2023-09-19T11:07:57;100264.84;;;20.98;56.75
46598;BME280;32318;48.858;8.252;2023-09-19T11:16:05;100262.16;;;21.10;58.77
46598;BME280;32318;48.858;8.252;2023-09-19T11:41:41;100235.00;;;21.10;57.73
46598;BME280;32318;48.858;8.252;2023-09-19T11:49:41;100218.28;;;21.25;56.86
46598;BME280;32318;48.858;8.252;2023-09-19T11:57:44;100199.84;;;21.39;55.87
46598;BME280;32318;48.858;8.252;2023-09-19T12:05:44;100197.22;;;21.56;53.52
46598;BME280;32318;48.858;8.252;2023-09-19T12:13:46;100196.38;;;21.80;54.68
46598;BME280;32318;48.858;8.252;2023-09-19T12:21:57;100191.94;;;22.02;51.43
46598;BME280;32318;48.858;8.252;2023-09-19T12:29:58;100187.00;;;21.99;53.25
46598;BME280;32318;48.858;8.252;2023-09-19T12:37:59;100168.66;;;22.06;53.68
46598;BME280;32318;48.858;8.252;2023-09-19T12:45:59;100162.63;;;22.33;53.13
46598;BME280;32318;48.858;8.252;2023-09-19T12:54:00;100158.72;;;22.58;52.69
46598;BME280;32318;48.858;8.252;2023-09-19T13:02:04;100149.09;;;22.67;49.92
46598;BME280;32318;48.858;8.252;2023-09-19T13:10:13;100148.00;;;22.85;47.96
46598;BME280;32318;48.858;8.252;2023-09-19T13:18:20;100146.78;;;23.10;48.95
46598;BME280;32318;48.858;8.252;2023-09-19T13:26:21;100142.63;;;23.08;46.03
46598;BME280;32318;48.858;8.252;2023-09-19T13:34:22;100124.91;;;23.22;49.55
46598;BME280;32318;48.858;8.252;2023-09-19T13:42:24;100132.00;;;23.23;46.96
46598;BME280;32318;48.858;8.252;2023-09-19T13:50:26;100128.25;;;23.29;44.89
46598;BME280;32318;48.858;8.252;2023-09-19T13:58:29;100122.97;;;23.40;47.74
46598;BME280;32318;48.858;8.252;2023-09-19T14:06:31;100115.97;;;23.27;48.11
46598;BME280;32318;48.858;8.252;2023-09-19T14:14:31;100109.13;;;23.07;48.31
46598;BME280;32318;48.858;8.252;2023-09-19T14:22:31;100110.47;;;23.05;47.22
46598;BME280;32318;48.858;8.252;2023-09-19T14:30:32;100104.50;;;23.08;48.28
46598;BME280;32318;48.858;8.252;2023-09-19T14:38:37;100099.56;;;23.05;47.61
46598;BME280;32318;48.858;8.252;2023-09-19T14:46:38;100100.09;;;22.84;48.23
46598;BME280;32318;48.858;8.252;2023-09-19T14:54:38;100088.53;;;22.77;48.52
46598;BME280;32318;48.858;8.252;2023-09-19T15:02:41;100091.09;;;22.84;48.45
46598;BME280;32318;48.858;8.252;2023-09-19T15:10:49;100077.53;;;23.06;46.81
46598;BME280;32318;48.858;8.252;2023-09-19T15:18:49;100080.31;;;23.28;47.42
46598;BME280;32318;48.858;8.252;2023-09-19T15:26:52;100075.03;;;23.22;47.44
46598;BME280;32318;48.858;8.252;2023-09-19T15:34:53;100065.44;;;22.97;47.02
46598;BME280;32318;48.858;8.252;2023-09-19T15:42:54;100054.38;;;22.86;48.17
46598;BME280;32318;48.858;8.252;2023-09-19T15:50:56;100053.47;;;22.81;48.67
46598;BME280;32318;48.858;8.252;2023-09-19T15:58:56;100044.19;;;22.77;48.30
46598;BME280;32318;48.858;8.252;2023-09-19T16:06:56;100049.56;;;22.71;49.71
46598;BME280;32318;48.858;8.252;2023-09-19T16:14:57;100053.84;;;22.67;50.26
46598;BME280;32318;48.858;8.252;2023-09-19T16:22:57;100051.56;;;22.59;49.99
46598;BME280;32318;48.858;8.252;2023-09-19T16:30:58;100042.97;;;22.50;49.71
46598;BME280;32318;48.858;8.252;2023-09-19T16:39:00;100042.22;;;22.38;50.04
46598;BME280;32318;48.858;8.252;2023-09-19T16:47:00;100034.97;;;22.27;50.91
46598;BME280;32318;48.858;8.252;2023-09-19T16:55:03;100037.81;;;22.20;51.43
46598;BME280;32318;48.858;8.252;2023-09-19T17:03:03;100041.34;;;22.03;51.68
46598;BME280;32318;48.858;8.252;2023-09-19T17:11:09;100051.16;;;21.87;52.10
46598;BME280;32318;48.858;8.252;2023-09-19T17:19:10;100051.81;;;21.66;51.48
46598;BME280;32318;48.858;8.252;2023-09-19T17:27:12;100045.25;;;21.50;52.64
46598;BME280;32318;48.858;8.252;2023-09-19T17:35:13;100053.78;;;21.29;53.27
46598;BME280;32318;48.858;8.252;2023-09-19T17:43:17;100051.97;;;21.06;53.98
46598;BME280;32318;48.858;8.252;2023-09-19T17:51:18;100062.00;;;20.94;54.28
46598;BME280;32318;48.858;8.252;2023-09-19T17:59:19;100059.06;;;20.83;55.17
46598;BME280;32318;48.858;8.252;2023-09-19T18:07:19;100067.41;;;20.70;56.14
46598;BME280;32318;48.858;8.252;2023-09-19T18:15:19;100081.53;;;20.48;57.17
46598;BME280;32318;48.858;8.252;2023-09-19T18:23:20;100092.47;;;20.30;58.43
46598;BME280;32318;48.858;8.252;2023-09-19T18:31:21;100103.25;;;20.06;59.56
46598;BME280;32318;48.858;8.252;2023-09-19T18:39:21;100117.06;;;19.86;60.49
46598;BME280;32318;48.858;8.252;2023-09-19T18:47:23;100110.59;;;19.68;59.78
46598;BME280;32318;48.858;8.252;2023-09-19T18:55:28;100117.44;;;19.52;59.99
46598;BME280;32318;48.858;8.252;2023-09-19T19:03:28;100113.38;;;19.43;60.47
46598;BME280;32318;48.858;8.252;2023-09-19T19:11:29;100112.81;;;19.41;60.61
46598;BME280;32318;48.858;8.252;2023-09-19T19:19:30;100130.53;;;19.37;61.44
46598;BME280;32318;48.858;8.252;2023-09-19T19:27:31;100127.38;;;19.21;61.76
46598;BME280;32318;48.858;8.252;2023-09-19T19:35:32;100135.19;;;19.11;62.46
46598;BME280;32318;48.858;8.252;2023-09-19T19:43:33;100142.78;;;19.02;62.91
46598;BME280;32318;48.858;8.252;2023-09-19T19:51:37;100141.16;;;18.94;63.66
46598;BME280;32318;48.858;8.252;2023-09-19T19:59:38;100148.78;;;18.79;63.56
46598;BME280;32318;48.858;8.252;2023-09-19T20:07:38;100153.41;;;18.72;64.05
46598;BME280;32318;48.858;8.252;2023-09-19T20:15:39;100147.03;;;18.59;64.56
46598;BME280;32318;48.858;8.252;2023-09-19T20:23:41;100151.91;;;18.50;64.75
46598;BME280;32318;48.858;8.252;2023-09-19T20:31:42;100154.88;;;18.42;65.25
46598;BME280;32318;48.858;8.252;2023-09-19T20:48:09;100163.66;;;17.85;65.87
46598;BME280;32318;48.858;8.252;2023-09-19T20:56:10;100163.41;;;17.94;64.63
46598;BME280;32318;48.858;8.252;2023-09-19T21:04:12;100162.84;;;17.85;65.73
46598;BME280;32318;48.858;8.252;2023-09-19T21:12:12;100155.78;;;17.84;65.15
46598;BME280;32318;48.858;8.252;2023-09-19T21:20:14;100163.06;;;17.77;65.46
46598;BME280;32318;48.858;8.252;2023-09-19T21:28:17;100156.84;;;17.69;66.04
46598;BME280;32318;48.858;8.252;2023-09-19T21:36:18;100161.50;;;17.55;66.27
46598;BME280;32318;48.858;8.252;2023-09-19T21:44:22;100161.69;;;17.47;66.63
46598;BME280;32318;48.858;8.252;2023-09-19T21:52:23;100154.66;;;17.39;66.57
46598;BME280;32318;48.858;8.252;2023-09-19T22:00:24;100159.44;;;17.37;66.63
46598;BME280;32318;48.858;8.252;2023-09-19T22:08:36;100166.09;;;17.35;67.09
46598;BME280;32318;48.858;8.252;2023-09-19T22:16:36;100165.06;;;17.29;66.24
46598;BME280;32318;48.858;8.252;2023-09-19T22:24:39;100160.47;;;17.30;66.79
46598;BME280;32318;48.858;8.252;2023-09-19T22:32:40;100152.59;;;17.28;66.60
46598;BME280;32318;48.858;8.252;2023-09-19T22:40:40;100159.47;;;17.24;66.84
46598;BME280;32318;48.858;8.252;2023-09-19T22:48:43;100166.31;;;17.20;67.04
46598;BME280;32318;48.858;8.252;2023-09-19T22:56:46;100152.84;;;17.13;67.54
46598;BME280;32318;48.858;8.252;2023-09-19T23:04:51;100144.31;;;17.09;67.24
46598;BME280;32318;48.858;8.252;2023-09-19T23:12:52;100154.06;;;16.90;67.42
46598;BME280;32318;48.858;8.252;2023-09-19T23:20:55;100144.94;;;16.85;68.29
46598;BME280;32318;48.858;8.252;2023-09-19T23:29:04;100139.56;;;16.85;68.53
46598;BME280;32318;48.858;8.252;2023-09-19T23:37:08;100146.59;;;16.86;67.98
46598;BME280;32318;48.858;8.252;2023-09-19T23:45:08;100144.31;;;16.83;67.76
46598;BME280;32318;48.858;8.252;2023-09-19T23:53:09;100143.09;;;16.78;67.70
